Aviation Digital Data Service (ADDS)

Output produced by METARs form (0610 UTC 25 June 2018)
found at http://www.aviationweather.gov/adds/metars/
 
SOCA 250600Z AUTO /////KT 9999 SCT002 BKN020 OVC220 22/22 Q1013
TAF SOCA 250500Z 2506/2606 VRB02KT 9999 FEW020 SCT055 
     TEMPO 2506/2511 1000 MIFG BKN001 
     FM251200 07010KT 9999 SCT026 
     TEMPO 2515/2521 3000 SHRA SCT018TCU 
     FM252300 VRB02KT CAVOK